Time;durP1;ratioP1;P1;durP2;ratioP2;P2;SDS_P1;SDS_P2;PMS_P1;PMS_P2;Temp;Humidity;BMP_temperature;BMP_pressure;BME280_temperature;BME280_humidity;BME280_pressure;Samples;Min_cycle;Max_cycle;Signal;HPM_P1;HPM_P2
2021/07/25 00:01:54;;;;;;;;;;;;;;;19.47;72.87;99163.90;1892977;76;20144;-61
2021/07/25 00:04:31;;;;;;;;;;;;;;;19.43;73.10;99160.92;1892709;76;20458;-62
2021/07/25 00:07:06;;;;;;;;;;;;;;;19.41;73.06;99166.62;1873386;76;20208;-63
2021/07/25 00:09:41;;;;;;;;;;;;;;;19.37;73.35;99159.77;1873311;76;20102;-61
2021/07/25 00:12:17;;;;;;;;;;;;;;;19.36;73.56;99160.64;1873229;76;20205;-63
2021/07/25 00:14:51;;;;;;;;;;;;;;;19.32;73.53;99159.00;1873394;76;20094;-63
2021/07/25 00:17:27;;;;;;;;;;;;;;;19.27;73.73;99161.25;1873230;76;20355;-62
2021/07/25 00:20:02;;;;;;;;;;;;;;;19.23;73.90;99157.42;1892711;76;20171;-62
2021/07/25 00:22:37;;;;;;;;;;;;;;;19.21;73.97;99162.70;1855306;76;20472;-62
2021/07/25 00:25:32;;;;;;;;;;;;;;;19.18;74.15;99154.89;1865997;76;20105;-62
2021/07/25 00:28:14;;;;;;;;;;;;;;;19.16;74.20;99161.94;1892712;76;20450;-62
2021/07/25 00:30:49;;;;;;;;;;;;;;;19.13;74.40;99158.50;1872729;76;20102;-62
2021/07/25 00:33:24;;;;;;;;;;;;;;;19.11;74.57;99157.25;1873389;76;20094;-63
2021/07/25 00:36:03;;;;;;;;;;;;;;;19.09;74.36;99153.34;1871365;76;20109;-63
2021/07/25 00:38:57;;;;;;;;;;;;;;;19.10;74.28;99154.20;1880322;75;20231;-63
2021/07/25 00:41:51;;;;;;;;;;;;;;;19.07;74.54;99154.27;1873276;76;20097;-63
2021/07/25 00:44:45;;;;;;;;;;;;;;;19.07;74.68;99156.88;1873372;76;20458;-62
2021/07/25 00:47:42;;;;;;;;;;;;;;;19.05;74.74;99159.97;1892802;76;20203;-62
2021/07/25 00:50:23;;;;;;;;;;;;;;;19.03;74.94;99160.44;1872561;76;20204;-61
2021/07/25 00:52:58;;;;;;;;;;;;;;;19.03;74.96;99153.91;1873397;76;20093;-63
2021/07/25 00:55:52;;;;;;;;;;;;;;;19.06;74.72;99156.48;1873348;76;20359;-62
2021/07/25 00:58:26;;;;;;;;;;;;;;;19.09;74.88;99154.65;1873418;76;20094;-62
2021/07/25 01:01:01;;;;;;;;;;;;;;;19.12;74.77;99155.03;1873335;76;20344;-62
2021/07/25 01:04:05;;;;;;;;;;;;;;;19.15;74.78;99160.20;1857726;76;20108;-60
2021/07/25 01:07:03;;;;;;;;;;;;;;;19.21;74.49;99162.70;1867774;76;20101;-61
2021/07/25 01:09:50;;;;;;;;;;;;;;;19.23;74.37;99162.23;1873417;76;20208;-63
2021/07/25 01:12:57;;;;;;;;;;;;;;;19.22;74.38;99162.25;1892638;76;20187;-62
2021/07/25 01:15:33;;;;;;;;;;;;;;;19.21;74.50;99162.70;1892712;76;20207;-63
2021/07/25 01:18:27;;;;;;;;;;;;;;;19.19;74.51;99163.17;1873329;76;20216;-63
2021/07/25 01:21:01;;;;;;;;;;;;;;;19.17;74.34;99163.65;1833101;77;20226;-63
2021/07/25 01:23:36;;;;;;;;;;;;;;;19.15;74.48;99168.05;1873420;76;20097;-62
2021/07/25 01:26:13;;;;;;;;;;;;;;;19.13;74.43;99161.12;1873205;76;20101;-62
2021/07/25 01:28:49;;;;;;;;;;;;;;;19.09;74.43;99160.34;1873387;76;20212;-63
2021/07/25 01:31:44;;;;;;;;;;;;;;;19.05;74.72;99163.44;1873406;76;20212;-62
2021/07/25 01:34:19;;;;;;;;;;;;;;;19.02;74.71;99162.20;1873412;76;20212;-63
2021/07/25 01:37:13;;;;;;;;;;;;;;;18.98;74.98;99157.95;1861584;76;20222;-62
2021/07/25 01:39:48;;;;;;;;;;;;;;;18.98;74.93;99166.21;1873423;76;20287;-62
2021/07/25 01:42:28;;;;;;;;;;;;;;;18.95;74.97;99159.73;1873408;76;20111;-62
2021/07/25 01:45:23;;;;;;;;;;;;;;;18.93;74.86;99158.48;1880870;75;20140;-61
2021/07/25 01:47:58;;;;;;;;;;;;;;;18.93;74.70;99160.20;1873361;76;20097;-63
2021/07/25 01:50:33;;;;;;;;;;;;;;;18.89;74.80;99161.19;1873239;76;20101;-61
2021/07/25 01:53:07;;;;;;;;;;;;;;;18.86;75.05;99166.88;1858729;76;20452;-63
2021/07/25 01:55:43;;;;;;;;;;;;;;;18.85;75.23;99169.52;1858561;76;20358;-62
2021/07/25 01:58:36;;;;;;;;;;;;;;;18.81;75.64;99167.42;1872871;76;20204;-62
2021/07/25 02:01:12;;;;;;;;;;;;;;;18.79;75.88;99167.03;1858585;76;20217;-62
2021/07/25 02:04:12;;;;;;;;;;;;;;;18.75;76.12;99167.94;1871962;76;20283;-62
2021/07/25 02:06:46;;;;;;;;;;;;;;;18.71;76.58;99165.84;1872885;76;20216;-62
2021/07/25 02:09:21;;;;;;;;;;;;;;;18.68;76.78;99167.66;1873390;76;20196;-64
2021/07/25 02:11:55;;;;;;;;;;;;;;;18.66;77.10;99171.59;1873417;76;20168;-62
2021/07/25 02:14:31;;;;;;;;;;;;;;;18.63;77.08;99177.74;1892742;76;20139;-63
2021/07/25 02:17:07;;;;;;;;;;;;;;;18.62;76.92;99172.53;1870748;76;20104;-63
2021/07/25 02:20:00;;;;;;;;;;;;;;;18.60;77.05;99176.95;1891060;76;20109;-62
2021/07/25 02:22:34;;;;;;;;;;;;;;;18.57;77.18;99174.37;1873418;76;20208;-62
2021/07/25 02:25:15;;;;;;;;;;;;;;;18.58;77.08;99173.50;1872570;76;20094;-62
2021/07/25 02:27:52;;;;;;;;;;;;;;;18.61;77.16;99171.67;1871856;76;20284;-61
2021/07/25 02:30:27;;;;;;;;;;;;;;;18.66;77.06;99176.83;1892227;76;20196;-62
2021/07/25 02:33:01;;;;;;;;;;;;;;;18.71;76.91;99176.75;1873423;76;20356;-62
2021/07/25 02:35:56;;;;;;;;;;;;;;;18.79;76.79;99180.95;1873403;76;20462;-64
2021/07/25 02:38:31;;;;;;;;;;;;;;;18.83;76.57;99182.64;1873442;76;20204;-63
2021/07/25 02:41:25;;;;;;;;;;;;;;;18.91;76.40;99189.48;1873344;76;20172;-62
2021/07/25 02:44:06;;;;;;;;;;;;;;;18.97;76.09;99184.97;1872513;76;20212;-63
2021/07/25 02:46:41;;;;;;;;;;;;;;;19.00;75.99;99186.21;1873239;76;20101;-63
2021/07/25 02:49:16;;;;;;;;;;;;;;;19.00;75.71;99191.45;1873400;76;20220;-63
2021/07/25 02:51:50;;;;;;;;;;;;;;;19.01;75.63;99194.49;1873403;76;20098;-62
2021/07/25 02:54:25;;;;;;;;;;;;;;;19.02;75.37;99186.20;1873320;76;20516;-62
2021/07/25 02:57:00;;;;;;;;;;;;;;;19.05;75.26;99193.97;1892745;76;20343;-63
2021/07/25 02:59:35;;;;;;;;;;;;;;;19.04;75.31;99195.73;1873293;76;20098;-63
2021/07/25 03:02:13;;;;;;;;;;;;;;;19.06;75.35;99190.48;1873518;76;20340;-62
2021/07/25 03:04:50;;;;;;;;;;;;;;;19.08;75.42;99187.37;1873150;76;20176;-64
2021/07/25 03:07:25;;;;;;;;;;;;;;;19.12;75.51;99199.51;1873260;76;20343;-63
2021/07/25 03:10:21;;;;;;;;;;;;;;;19.14;75.43;99191.19;1873134;76;20101;-62
2021/07/25 03:13:15;;;;;;;;;;;;;;;19.17;75.59;99195.05;1892709;76;20101;-61
2021/07/25 03:16:04;;;;;;;;;;;;;;;19.18;75.51;99198.06;1892750;76;20117;-63
2021/07/25 03:18:39;;;;;;;;;;;;;;;19.21;75.59;99200.64;1873324;76;20093;-61
2021/07/25 03:21:14;;;;;;;;;;;;;;;19.24;75.52;99208.87;1873427;76;20094;-63
2021/07/25 03:23:48;;;;;;;;;;;;;;;19.26;75.23;99201.41;1873420;76;20098;-62
2021/07/25 03:26:24;;;;;;;;;;;;;;;19.33;75.43;99207.36;1873290;76;20094;-62
2021/07/25 03:29:02;;;;;;;;;;;;;;;19.39;75.07;99210.32;1873337;76;20097;-62
2021/07/25 03:31:37;;;;;;;;;;;;;;;19.44;75.34;99209.32;1873431;76;20216;-62
2021/07/25 03:34:11;;;;;;;;;;;;;;;19.51;75.05;99208.72;1892721;76;20092;-63
2021/07/25 03:37:05;;;;;;;;;;;;;;;19.58;74.73;99215.56;1870739;75;20263;-63
2021/07/25 03:39:41;;;;;;;;;;;;;;;19.65;74.93;99214.53;1873445;76;20212;-63
2021/07/25 03:42:16;;;;;;;;;;;;;;;19.71;74.63;99218.34;1873424;76;20208;-63
2021/07/25 03:45:10;;;;;;;;;;;;;;;19.80;74.43;99217.30;1873427;76;20359;-62
2021/07/25 03:47:44;;;;;;;;;;;;;;;19.88;74.47;99223.67;1873414;76;20204;-63
2021/07/25 03:50:40;;;;;;;;;;;;;;;19.98;74.46;99228.27;1873405;76;20208;-62
2021/07/25 03:53:33;;;;;;;;;;;;;;;20.05;74.32;99227.19;1873383;76;20454;-64
2021/07/25 03:56:09;;;;;;;;;;;;;;;20.12;74.16;99228.36;1873251;76;20101;-62
2021/07/25 03:58:45;;;;;;;;;;;;;;;20.23;73.91;99228.55;1873172;76;20101;-61
2021/07/25 04:01:20;;;;;;;;;;;;;;;20.30;73.53;99230.09;1873238;76;20102;-62
2021/07/25 04:03:55;;;;;;;;;;;;;;;20.35;73.17;99226.91;1873417;76;20343;-64
2021/07/25 04:06:31;;;;;;;;;;;;;;;20.44;72.94;99231.94;1873156;76;20101;-62
2021/07/25 04:09:06;;;;;;;;;;;;;;;20.54;72.58;99237.39;1873275;76;20097;-64
2021/07/25 04:11:42;;;;;;;;;;;;;;;20.68;72.40;99236.17;1873374;76;20102;-62
2021/07/25 04:14:17;;;;;;;;;;;;;;;20.85;72.15;99236.60;1873446;76;20094;-62
2021/07/25 04:16:52;;;;;;;;;;;;;;;20.97;71.74;99238.90;1873285;76;20098;-62
2021/07/25 04:19:28;;;;;;;;;;;;;;;21.10;71.45;99236.80;1873214;76;20101;-62
2021/07/25 04:22:03;;;;;;;;;;;;;;;21.28;71.13;99239.36;1873283;76;20098;-62
2021/07/25 04:24:39;;;;;;;;;;;;;;;21.46;70.65;99235.38;1873170;76;20355;-62
2021/07/25 04:27:15;;;;;;;;;;;;;;;21.65;70.08;99233.06;1873279;76;20352;-62
2021/07/25 04:29:50;;;;;;;;;;;;;;;21.79;69.10;99240.55;1873506;76;20097;-63
2021/07/25 04:32:31;;;;;;;;;;;;;;;21.92;68.21;99240.57;1872552;76;20097;-62
2021/07/25 04:35:30;;;;;;;;;;;;;;;22.08;67.06;99238.31;1873215;76;20102;-63
2021/07/25 04:38:06;;;;;;;;;;;;;;;22.27;66.39;99240.80;1892741;76;20207;-63
2021/07/25 04:41:01;;;;;;;;;;;;;;;22.42;65.28;99241.23;1873402;76;20208;-63
2021/07/25 04:43:37;;;;;;;;;;;;;;;22.61;65.08;99242.77;1873448;76;20255;-61
2021/07/25 04:46:25;;;;;;;;;;;;;;;22.81;64.36;99248.67;1892703;76;20096;-63
2021/07/25 04:49:16;;;;;;;;;;;;;;;23.02;63.85;99253.21;1892783;76;20207;-61
2021/07/25 04:52:13;;;;;;;;;;;;;;;23.20;63.21;99255.65;1873190;76;20101;-63
2021/07/25 04:55:09;;;;;;;;;;;;;;;23.33;62.78;99256.95;1873362;76;20212;-61
2021/07/25 04:57:44;;;;;;;;;;;;;;;23.46;62.09;99256.47;1892729;76;20207;-62
2021/07/25 05:00:40;;;;;;;;;;;;;;;23.53;61.59;99256.19;1892708;76;20207;-64
2021/07/25 05:03:16;;;;;;;;;;;;;;;23.58;61.85;99258.66;1873229;76;20097;-63
2021/07/25 05:05:53;;;;;;;;;;;;;;;23.67;61.72;99252.20;1873414;76;20093;-63
2021/07/25 05:08:47;;;;;;;;;;;;;;;23.77;61.43;99257.55;1873454;76;20093;-63
2021/07/25 05:11:34;;;;;;;;;;;;;;;23.92;61.24;99265.33;1872558;76;20212;-62
2021/07/25 05:14:32;;;;;;;;;;;;;;;24.07;61.09;99263.84;1873475;76;20208;-64
2021/07/25 05:17:31;;;;;;;;;;;;;;;24.24;60.54;99269.31;1892681;76;20354;-63
2021/07/25 05:20:14;;;;;;;;;;;;;;;24.42;59.96;99259.33;1892744;76;20379;-64
2021/07/25 05:23:02;;;;;;;;;;;;;;;24.64;59.34;99265.94;1873314;76;20101;-64
2021/07/25 05:25:53;;;;;;;;;;;;;;;24.77;59.39;99273.34;1892740;76;20207;-64
2021/07/25 05:28:28;;;;;;;;;;;;;;;24.86;59.01;99272.50;1892763;76;20358;-63
2021/07/25 05:31:05;;;;;;;;;;;;;;;24.94;58.47;99280.56;1873335;76;20098;-63
2021/07/25 05:34:05;;;;;;;;;;;;;;;24.98;57.27;99276.37;1872562;76;20208;-63
2021/07/25 05:36:39;;;;;;;;;;;;;;;25.06;56.94;99271.64;1873346;76;20098;-63
2021/07/25 05:39:15;;;;;;;;;;;;;;;25.17;57.13;99273.84;1873292;76;20458;-64
2021/07/25 05:41:51;;;;;;;;;;;;;;;25.24;57.28;99280.58;1873156;76;20093;-63
2021/07/25 05:44:26;;;;;;;;;;;;;;;25.69;56.56;99274.12;1892753;76;20092;-64
2021/07/25 05:47:20;;;;;;;;;;;;;;;26.61;54.06;99277.73;1892907;76;20097;-63
2021/07/25 05:49:55;;;;;;;;;;;;;;;27.27;52.08;99283.66;1873445;76;20344;-64
2021/07/25 05:52:51;;;;;;;;;;;;;;;28.84;48.28;99284.25;1892769;76;20096;-64
2021/07/25 05:55:29;;;;;;;;;;;;;;;31.09;42.96;99293.55;1873540;76;20348;-62
2021/07/25 05:58:04;;;;;;;;;;;;;;;32.28;39.40;99306.95;1892674;76;20097;-63
2021/07/25 06:00:38;;;;;;;;;;;;;;;33.23;38.13;99309.21;1873432;76;20208;-65
2021/07/25 06:03:12;;;;;;;;;;;;;;;34.25;36.71;99314.11;1873419;76;20443;-62
2021/07/25 06:05:47;;;;;;;;;;;;;;;35.58;33.96;99318.14;1892755;76;20097;-64
2021/07/25 06:08:22;;;;;;;;;;;;;;;36.94;32.18;99318.47;1892714;76;20351;-64
2021/07/25 06:10:57;;;;;;;;;;;;;;;38.01;30.37;99326.77;1873446;76;20094;-63
2021/07/25 06:13:31;;;;;;;;;;;;;;;38.81;28.93;99333.70;1873425;76;20454;-63
2021/07/25 06:16:05;;;;;;;;;;;;;;;39.48;27.84;99343.53;1873378;76;20098;-63
2021/07/25 06:18:40;;;;;;;;;;;;;;;39.69;27.51;99341.30;1892756;76;20211;-61
2021/07/25 06:21:18;;;;;;;;;;;;;;;40.36;26.83;99352.25;1873425;76;20212;-64
2021/07/25 06:23:52;;;;;;;;;;;;;;;41.20;25.94;99356.27;1873611;76;20274;-63
2021/07/25 06:26:27;;;;;;;;;;;;;;;42.21;24.75;99361.59;1873427;76;20172;-63
2021/07/25 06:29:20;;;;;;;;;;;;;;;42.91;23.94;99361.53;1873457;76;20215;-63
2021/07/25 06:31:56;;;;;;;;;;;;;;;43.65;23.11;99370.91;1873219;76;20216;-64
2021/07/25 06:34:30;;;;;;;;;;;;;;;44.13;21.90;99375.45;1892799;76;20207;-63
2021/07/25 06:37:05;;;;;;;;;;;;;;;44.28;21.38;99376.80;1873478;76;20098;-64
2021/07/25 06:39:40;;;;;;;;;;;;;;;44.29;20.84;99376.58;1892771;76;20097;-64
2021/07/25 06:42:14;;;;;;;;;;;;;;;43.82;20.75;99373.77;1873407;76;20208;-64
2021/07/25 06:44:48;;;;;;;;;;;;;;;43.13;19.98;99372.56;1873366;76;20348;-64
2021/07/25 06:47:23;;;;;;;;;;;;;;;43.17;20.34;99377.94;1873388;76;20196;-64
2021/07/25 06:49:57;;;;;;;;;;;;;;;43.43;20.56;99380.78;1892691;76;20097;-63
2021/07/25 06:52:32;;;;;;;;;;;;;;;44.38;19.61;99390.97;1873544;76;20098;-64
2021/07/25 06:55:08;;;;;;;;;;;;;;;45.21;19.07;99394.14;1873231;76;20101;-64
2021/07/25 06:57:43;;;;;;;;;;;;;;;45.42;18.34;99405.50;1873395;76;20093;-63
2021/07/25 07:00:36;;;;;;;;;;;;;;;45.92;18.31;99401.66;1873378;76;20212;-65
2021/07/25 07:03:11;;;;;;;;;;;;;;;46.65;17.84;99412.63;1892730;76;20203;-64
2021/07/25 07:05:48;;;;;;;;;;;;;;;47.11;17.17;99420.09;1892737;76;20203;-65
2021/07/25 07:08:24;;;;;;;;;;;;;;;47.04;16.74;99424.16;1873239;76;20102;-64
2021/07/25 07:10:58;;;;;;;;;;;;;;;45.03;17.77;99418.58;1892865;76;20207;-64
2021/07/25 07:13:34;;;;;;;;;;;;;;;43.48;19.17;99408.25;1873272;76;20359;-63
2021/07/25 07:16:08;;;;;;;;;;;;;;;43.28;19.56;99402.48;1873400;76;20344;-64
2021/07/25 07:19:02;;;;;;;;;;;;;;;43.28;19.87;99407.44;1873403;76;20097;-64
2021/07/25 07:21:36;;;;;;;;;;;;;;;43.59;19.89;99404.26;1873441;76;20450;-63
2021/07/25 07:24:11;;;;;;;;;;;;;;;43.89;19.44;99406.48;1892745;76;20212;-64
2021/07/25 07:26:45;;;;;;;;;;;;;;;44.47;19.17;99390.32;1873384;76;20348;-64
2021/07/25 07:29:20;;;;;;;;;;;;;;;45.00;18.50;99404.52;1873401;76;20208;-63
2021/07/25 07:32:01;;;;;;;;;;;;;;;44.96;17.25;99410.89;1892640;76;20489;-64
2021/07/25 07:34:36;;;;;;;;;;;;;;;44.07;18.22;99400.69;1892745;76;20342;-63
2021/07/25 07:37:13;;;;;;;;;;;;;;;44.68;17.92;99401.75;1873401;76;20212;-64
2021/07/25 07:39:47;;;;;;;;;;;;;;;45.20;17.85;99400.64;1873415;76;20208;-64
2021/07/25 07:42:25;;;;;;;;;;;;;;;45.58;17.48;99407.14;1892706;76;20208;-65
2021/07/25 07:45:00;;;;;;;;;;;;;;;44.30;18.18;99401.91;1873253;76;20098;-62
2021/07/25 07:47:35;;;;;;;;;;;;;;;44.29;18.46;99408.40;1873668;76;20250;-66
2021/07/25 07:50:10;;;;;;;;;;;;;;;44.74;18.24;99406.44;1873408;76;20208;-63
2021/07/25 07:52:45;;;;;;;;;;;;;;;45.36;17.28;99408.52;1873444;76;20204;-64
2021/07/25 07:55:20;;;;;;;;;;;;;;;45.54;17.27;99411.27;1873398;76;20340;-64
2021/07/25 07:57:54;;;;;;;;;;;;;;;45.95;17.17;99413.25;1837794;77;20202;-62
2021/07/25 08:00:48;;;;;;;;;;;;;;;45.77;16.52;99413.23;1873397;76;20458;-63
2021/07/25 08:03:23;;;;;;;;;;;;;;;44.33;17.56;99416.52;1873401;76;20204;-65
2021/07/25 08:06:16;;;;;;;;;;;;;;;42.04;19.60;99396.10;1892740;76;20199;-63
2021/07/25 08:08:50;;;;;;;;;;;;;;;41.22;20.73;99390.81;1873427;76;20094;-63
2021/07/25 08:11:25;;;;;;;;;;;;;;;39.86;21.71;99385.48;1873342;76;20204;-62
2021/07/25 08:14:00;;;;;;;;;;;;;;;39.01;22.49;99381.65;1873518;76;20204;-63
2021/07/25 08:16:35;;;;;;;;;;;;;;;38.29;23.30;99379.32;1892714;76;20097;-63
2021/07/25 08:19:09;;;;;;;;;;;;;;;37.52;24.12;99375.92;1873420;76;20208;-63
2021/07/25 08:21:44;;;;;;;;;;;;;;;37.24;24.37;99375.80;1892732;76;20097;-64
2021/07/25 08:24:39;;;;;;;;;;;;;;;37.57;24.25;99373.14;1892712;76;20207;-62
2021/07/25 08:27:13;;;;;;;;;;;;;;;38.85;23.73;99371.50;1873448;76;20097;-62
2021/07/25 08:30:13;;;;;;;;;;;;;;;40.44;21.88;99375.77;1892707;76;20216;-64
2021/07/25 08:32:47;;;;;;;;;;;;;;;40.69;21.14;99382.11;1873541;76;20093;-64
2021/07/25 08:35:22;;;;;;;;;;;;;;;39.28;22.54;99380.16;1873378;76;20097;-65
2021/07/25 08:37:57;;;;;;;;;;;;;;;38.45;23.69;99374.16;1892745;76;20093;-63
2021/07/25 08:40:33;;;;;;;;;;;;;;;37.69;23.78;99372.48;1892827;76;20093;-63
2021/07/25 08:43:28;;;;;;;;;;;;;;;36.25;25.26;99369.59;1873364;76;20209;-63
2021/07/25 08:46:23;;;;;;;;;;;;;;;34.88;26.53;99367.89;1873317;76;20250;-64
2021/07/25 08:48:58;;;;;;;;;;;;;;;34.05;27.60;99361.23;1873455;76;20192;-64
2021/07/25 08:51:36;;;;;;;;;;;;;;;33.80;28.21;99361.48;1873428;76;20208;-63
2021/07/25 08:54:37;;;;;;;;;;;;;;;35.26;27.48;99362.48;1872468;76;20471;-63
2021/07/25 08:57:13;;;;;;;;;;;;;;;36.73;26.32;99370.20;1873427;76;20204;-64
2021/07/25 09:00:10;;;;;;;;;;;;;;;38.41;23.79;99382.16;1873518;76;20102;-63
2021/07/25 09:03:06;;;;;;;;;;;;;;;39.49;22.52;99381.71;1892837;76;20208;-63
2021/07/25 09:05:42;;;;;;;;;;;;;;;38.90;22.93;99381.36;1873396;76;20208;-62
2021/07/25 09:08:20;;;;;;;;;;;;;;;38.41;23.62;99383.00;1873426;76;20450;-64
2021/07/25 09:11:15;;;;;;;;;;;;;;;37.83;24.63;99385.11;1873399;76;20204;-64
2021/07/25 09:13:50;;;;;;;;;;;;;;;37.53;25.08;99375.80;1873486;76;20455;-64
2021/07/25 09:16:33;;;;;;;;;;;;;;;37.52;24.90;99375.42;1872555;76;20458;-63
2021/07/25 09:19:26;;;;;;;;;;;;;;;37.31;24.66;99374.23;1873398;76;20219;-63
2021/07/25 09:22:02;;;;;;;;;;;;;;;37.04;25.31;99366.05;1873450;76;20212;-63
2021/07/25 09:24:37;;;;;;;;;;;;;;;36.85;25.33;99377.15;1873405;76;20208;-63
2021/07/25 09:27:12;;;;;;;;;;;;;;;36.55;25.99;99373.20;1892715;76;20183;-64
2021/07/25 09:30:17;;;;;;;;;;;;;;;36.36;25.85;99376.22;1873401;76;20197;-64
2021/07/25 09:32:58;;;;;;;;;;;;;;;36.05;26.19;99380.27;1892697;76;20096;-63
2021/07/25 09:35:36;;;;;;;;;;;;;;;35.50;26.85;99382.36;1873645;76;20205;-63
2021/07/25 09:38:30;;;;;;;;;;;;;;;34.84;28.22;99371.83;1873254;76;20097;-64
2021/07/25 09:41:19;;;;;;;;;;;;;;;34.26;28.81;99376.08;1873396;76;20478;-63
2021/07/25 09:44:08;;;;;;;;;;;;;;;33.64;29.26;99375.23;1873355;76;20450;-65
2021/07/25 09:46:46;;;;;;;;;;;;;;;32.95;30.81;99369.28;1873346;76;20352;-63
2021/07/25 09:49:47;;;;;;;;;;;;;;;32.61;30.96;99373.11;1892745;76;20211;-64
2021/07/25 09:52:34;;;;;;;;;;;;;;;32.23;31.38;99371.38;1873373;76;20212;-65
2021/07/25 09:55:26;;;;;;;;;;;;;;;31.83;31.77;99372.49;1873449;76;20212;-63
2021/07/25 09:58:33;;;;;;;;;;;;;;;31.55;32.18;99370.45;1873366;76;20204;-66
2021/07/25 10:01:37;;;;;;;;;;;;;;;31.29;32.69;99365.03;1873329;76;20209;-62
2021/07/25 10:04:23;;;;;;;;;;;;;;;31.18;32.77;99368.92;1892866;76;20203;-64
2021/07/25 10:07:20;;;;;;;;;;;;;;;31.00;33.22;99363.02;1861006;76;20353;-63
2021/07/25 10:10:15;;;;;;;;;;;;;;;31.03;33.70;99358.81;1873419;76;20458;-64
2021/07/25 10:12:51;;;;;;;;;;;;;;;31.15;33.43;99355.80;1873341;76;20147;-65
2021/07/25 10:15:27;;;;;;;;;;;;;;;31.27;33.73;99350.97;1873332;76;20097;-63
2021/07/25 10:18:24;;;;;;;;;;;;;;;31.48;33.39;99351.82;1873378;76;20208;-64
2021/07/25 10:20:59;;;;;;;;;;;;;;;31.77;33.09;99354.61;1873393;76;20208;-67
2021/07/25 10:23:36;;;;;;;;;;;;;;;32.00;33.82;99353.50;1873409;76;20093;-64
2021/07/25 10:26:12;;;;;;;;;;;;;;;32.16;33.28;99351.45;1873263;76;20101;-64
2021/07/25 10:29:07;;;;;;;;;;;;;;;32.24;32.23;99354.91;1873358;76;20101;-65
2021/07/25 10:32:02;;;;;;;;;;;;;;;32.36;31.83;99351.80;1873400;76;20364;-64
2021/07/25 10:34:38;;;;;;;;;;;;;;;32.31;31.25;99352.62;1873341;76;20097;-64
2021/07/25 10:37:34;;;;;;;;;;;;;;;32.26;31.53;99360.11;1873308;76;20101;-65
2021/07/25 10:40:10;;;;;;;;;;;;;;;31.79;31.63;99362.04;1873398;76;20098;-63
2021/07/25 10:42:50;;;;;;;;;;;;;;;31.38;32.03;99358.72;1873458;76;20212;-65
2021/07/25 10:45:24;;;;;;;;;;;;;;;31.34;32.67;99360.23;1873502;76;20212;-62
2021/07/25 10:48:18;;;;;;;;;;;;;;;31.55;32.30;99357.11;1873375;76;20097;-64
2021/07/25 10:51:11;;;;;;;;;;;;;;;31.30;32.60;99365.91;1873272;76;20470;-64
2021/07/25 10:54:26;;;;;;;;;;;;;;;30.68;33.44;99354.45;1892754;76;20096;-63
2021/07/25 10:57:08;;;;;;;;;;;;;;;30.27;34.17;99346.88;1873444;76;20148;-64
2021/07/25 10:59:46;;;;;;;;;;;;;;;29.95;34.76;99352.91;1891710;76;20212;-65
2021/07/25 11:02:28;;;;;;;;;;;;;;;29.53;35.48;99353.23;1866926;76;20266;-64
2021/07/25 11:05:06;;;;;;;;;;;;;;;29.37;36.10;99357.78;1892791;76;20097;-65
2021/07/25 11:08:00;;;;;;;;;;;;;;;29.34;36.38;99350.00;1892708;76;20354;-64
2021/07/25 11:11:03;;;;;;;;;;;;;;;29.27;37.14;99345.99;1893065;76;20116;-65
2021/07/25 11:13:40;;;;;;;;;;;;;;;29.17;37.38;99341.69;1885841;76;20113;-63
2021/07/25 11:16:34;;;;;;;;;;;;;;;29.18;36.65;99350.04;1861442;76;20218;-64
2021/07/25 11:19:13;;;;;;;;;;;;;;;28.88;37.07;99352.70;1851094;76;20224;-62
2021/07/25 11:21:54;;;;;;;;;;;;;;;28.72;36.71;99349.56;1852464;76;20116;-65
2021/07/25 11:24:49;;;;;;;;;;;;;;;28.89;36.69;99341.11;1859541;76;20109;-63
2021/07/25 11:27:46;;;;;;;;;;;;;;;29.16;36.62;99336.01;1860034;76;20250;-64
2021/07/25 11:30:54;;;;;;;;;;;;;;;29.36;36.63;99340.10;1875363;76;20117;-63
2021/07/25 11:33:44;;;;;;;;;;;;;;;29.27;35.77;99340.20;1854028;76;20143;-65
2021/07/25 11:36:38;;;;;;;;;;;;;;;29.32;35.17;99338.59;1865126;76;20426;-66
2021/07/25 11:39:33;;;;;;;;;;;;;;;29.36;34.65;99340.10;1863612;76;20119;-66
2021/07/25 11:42:28;;;;;;;;;;;;;;;29.08;35.31;99331.16;1855679;76;20178;-64
2021/07/25 11:45:05;;;;;;;;;;;;;;;29.05;35.31;99332.64;1855085;76;20121;-64
2021/07/25 11:47:40;;;;;;;;;;;;;;;28.92;35.48;99335.61;1847153;76;20119;-64
2021/07/25 11:50:39;;;;;;;;;;;;;;;28.93;35.07;99331.55;1854214;76;20116;-63
2021/07/25 11:53:15;;;;;;;;;;;;;;;29.26;34.70;99319.01;1856779;76;20234;-65
2021/07/25 11:55:49;;;;;;;;;;;;;;;29.69;34.75;99324.39;1869308;76;20367;-62
2021/07/25 11:58:24;;;;;;;;;;;;;;;29.65;34.37;99325.07;1873412;76;20098;-65
2021/07/25 12:01:11;;;;;;;;;;;;;;;29.52;35.37;99320.95;1873446;76;20093;-63
2021/07/25 12:04:20;;;;;;;;;;;;;;;29.86;34.82;99329.52;1872568;76;20212;-66
2021/07/25 12:07:04;;;;;;;;;;;;;;;30.26;34.44;99315.04;1870897;76;20218;-63
2021/07/25 12:09:59;;;;;;;;;;;;;;;30.55;34.05;99320.27;1873226;76;20101;-63
2021/07/25 12:13:03;;;;;;;;;;;;;;;30.85;33.50;99323.59;1865137;76;20362;-63
2021/07/25 12:16:03;;;;;;;;;;;;;;;30.60;34.19;99318.16;1892703;76;20096;-63
2021/07/25 12:18:56;;;;;;;;;;;;;;;30.49;34.58;99318.87;1857503;76;20212;-63
2021/07/25 12:22:09;;;;;;;;;;;;;;;30.45;34.28;99318.19;1872583;76;20216;-64
2021/07/25 12:24:54;;;;;;;;;;;;;;;30.58;33.67;99314.73;1854043;76;20218;-63
2021/07/25 12:27:46;;;;;;;;;;;;;;;30.31;34.44;99319.59;1858536;76;20371;-63
2021/07/25 12:30:26;;;;;;;;;;;;;;;30.10;34.50;99319.59;1861288;76;20290;-64
2021/07/25 12:33:07;;;;;;;;;;;;;;;29.75;35.26;99305.41;1846226;76;20107;-63
2021/07/25 12:36:11;;;;;;;;;;;;;;;29.89;34.51;99306.70;1863521;76;20289;-63
2021/07/25 12:38:46;;;;;;;;;;;;;;;30.02;34.48;99307.66;1846804;76;20384;-65
2021/07/25 12:41:42;;;;;;;;;;;;;;;29.88;33.88;99326.30;1854334;76;20119;-64
2021/07/25 12:44:25;;;;;;;;;;;;;;;29.48;34.51;99322.55;1845624;76;20115;-63
2021/07/25 12:47:29;;;;;;;;;;;;;;;29.31;34.94;99319.59;1872506;76;20101;-63
2021/07/25 12:50:27;;;;;;;;;;;;;;;29.26;34.70;99320.34;1872500;76;20351;-64
2021/07/25 12:53:31;;;;;;;;;;;;;;;29.15;34.95;99317.85;1841680;76;20108;-64
2021/07/25 12:56:29;;;;;;;;;;;;;;;29.08;35.71;99315.20;1873240;76;20097;-64
2021/07/25 12:59:06;;;;;;;;;;;;;;;29.18;35.43;99308.39;1873463;76;20458;-63
2021/07/25 13:04:53;;;;;;;;;;;;;;;29.59;34.85;99309.44;1854638;76;20222;-65
2021/07/25 13:07:46;;;;;;;;;;;;;;;29.63;35.21;99310.48;1853637;77;20107;-64
2021/07/25 13:10:21;;;;;;;;;;;;;;;29.97;35.42;99309.75;1892773;76;20350;-63
2021/07/25 13:13:03;;;;;;;;;;;;;;;30.27;35.40;99314.08;1892874;76;20112;-64
2021/07/25 13:16:08;;;;;;;;;;;;;;;30.49;34.99;99314.39;1867868;76;20121;-65
2021/07/25 13:19:03;;;;;;;;;;;;;;;30.63;34.38;99310.83;1854161;76;20111;-63
2021/07/25 13:21:56;;;;;;;;;;;;;;;30.66;34.63;99315.10;1873162;76;20446;-64
2021/07/25 13:24:31;;;;;;;;;;;;;;;30.70;34.28;99313.92;1873395;76;20093;-64
2021/07/25 13:27:07;;;;;;;;;;;;;;;30.54;34.64;99311.91;1860389;76;20212;-63
2021/07/25 13:29:47;;;;;;;;;;;;;;;30.37;34.69;99309.86;1872646;76;20094;-63
2021/07/25 13:32:22;;;;;;;;;;;;;;;30.31;34.90;99313.42;1863627;76;20108;-64
2021/07/25 13:34:56;;;;;;;;;;;;;;;30.32;35.34;99303.98;1867127;76;20151;-65
2021/07/25 13:37:40;;;;;;;;;;;;;;;30.36;35.43;99309.49;1872520;76;20101;-63
2021/07/25 13:40:15;;;;;;;;;;;;;;;30.38;35.33;99312.03;1892795;76;20092;-65
2021/07/25 13:43:12;;;;;;;;;;;;;;;30.41;34.97;99311.38;1866072;76;20221;-62
2021/07/25 13:46:13;;;;;;;;;;;;;;;30.35;35.41;99315.75;1892733;76;20363;-64
2021/07/25 13:48:49;;;;;;;;;;;;;;;30.22;36.01;99305.02;1885096;76;20111;-63
2021/07/25 13:51:44;;;;;;;;;;;;;;;30.25;35.94;99315.98;1873458;76;20192;-63
2021/07/25 13:54:38;;;;;;;;;;;;;;;30.02;37.12;99298.34;1892723;76;20096;-64
2021/07/25 13:57:19;;;;;;;;;;;;;;;29.82;37.16;99317.38;1872629;76;20343;-64
2021/07/25 14:00:14;;;;;;;;;;;;;;;29.42;37.46;99309.17;1873289;76;20192;-65
2021/07/25 14:02:48;;;;;;;;;;;;;;;29.36;37.83;99303.77;1873576;76;20204;-63
2021/07/25 14:05:23;;;;;;;;;;;;;;;29.44;38.40;99297.97;1892819;76;20097;-64
2021/07/25 14:08:05;;;;;;;;;;;;;;;29.56;38.15;99305.16;1892945;76;20203;-64
2021/07/25 14:10:40;;;;;;;;;;;;;;;29.67;37.82;99298.36;1892794;76;20093;-64
2021/07/25 14:13:41;;;;;;;;;;;;;;;29.72;37.95;99304.27;1892762;76;20347;-64